sensor_id;sensor_type;location;lat;lon;timestamp;P1;durP1;ratioP1;P2;durP2;ratioP2
24259;SDS011;12384;48.112;18.418;2023-03-01T00:01:32;12.57;;;11.57;;
24259;SDS011;12384;48.112;18.418;2023-03-01T00:04:02;13.63;;;12.50;;
24259;SDS011;12384;48.112;18.418;2023-03-01T00:06:30;13.77;;;12.57;;
24259;SDS011;12384;48.112;18.418;2023-03-01T00:08:59;12.20;;;11.30;;
24259;SDS011;12384;48.112;18.418;2023-03-01T00:11:28;12.13;;;11.27;;
24259;SDS011;12384;48.112;18.418;2023-03-01T00:13:58;12.50;;;11.60;;
24259;SDS011;12384;48.112;18.418;2023-03-01T00:16:32;12.57;;;11.60;;
24259;SDS011;12384;48.112;18.418;2023-03-01T00:19:02;13.17;;;12.07;;
24259;SDS011;12384;48.112;18.418;2023-03-01T00:21:31;12.67;;;11.57;;
24259;SDS011;12384;48.112;18.418;2023-03-01T00:24:00;12.23;;;11.17;;
24259;SDS011;12384;48.112;18.418;2023-03-01T00:26:28;12.40;;;11.43;;
24259;SDS011;12384;48.112;18.418;2023-03-01T00:28:58;11.80;;;11.00;;
24259;SDS011;12384;48.112;18.418;2023-03-01T00:31:28;13.63;;;12.50;;
24259;SDS011;12384;48.112;18.418;2023-03-01T00:33:58;13.10;;;12.10;;
24259;SDS011;12384;48.112;18.418;2023-03-01T00:36:31;13.67;;;12.60;;
24259;SDS011;12384;48.112;18.418;2023-03-01T00:39:03;13.47;;;12.27;;
24259;SDS011;12384;48.112;18.418;2023-03-01T00:41:32;23.33;;;17.03;;
24259;SDS011;12384;48.112;18.418;2023-03-01T00:44:01;15.53;;;14.00;;
24259;SDS011;12384;48.112;18.418;2023-03-01T00:46:30;15.33;;;13.90;;
24259;SDS011;12384;48.112;18.418;2023-03-01T00:49:00;15.57;;;14.07;;
24259;SDS011;12384;48.112;18.418;2023-03-01T00:51:32;13.97;;;12.73;;
24259;SDS011;12384;48.112;18.418;2023-03-01T00:54:01;15.20;;;13.90;;
24259;SDS011;12384;48.112;18.418;2023-03-01T00:56:30;13.63;;;12.53;;
24259;SDS011;12384;48.112;18.418;2023-03-01T00:59:00;14.77;;;13.47;;
24259;SDS011;12384;48.112;18.418;2023-03-01T01:01:29;13.80;;;12.63;;
24259;SDS011;12384;48.112;18.418;2023-03-01T01:03:59;12.90;;;11.90;;
24259;SDS011;12384;48.112;18.418;2023-03-01T01:06:30;13.37;;;12.27;;
24259;SDS011;12384;48.112;18.418;2023-03-01T01:09:02;13.20;;;12.20;;
24259;SDS011;12384;48.112;18.418;2023-03-01T01:11:31;13.17;;;12.17;;
24259;SDS011;12384;48.112;18.418;2023-03-01T01:14:02;15.60;;;14.20;;
24259;SDS011;12384;48.112;18.418;2023-03-01T01:16:31;13.10;;;12.10;;
24259;SDS011;12384;48.112;18.418;2023-03-01T01:19:00;12.97;;;11.97;;
24259;SDS011;12384;48.112;18.418;2023-03-01T01:21:29;13.83;;;12.77;;
24259;SDS011;12384;48.112;18.418;2023-03-01T01:23:59;13.63;;;12.53;;
24259;SDS011;12384;48.112;18.418;2023-03-01T01:26:28;12.63;;;11.63;;
24259;SDS011;12384;48.112;18.418;2023-03-01T01:28:59;13.90;;;12.77;;
24259;SDS011;12384;48.112;18.418;2023-03-01T01:31:30;13.37;;;12.27;;
24259;SDS011;12384;48.112;18.418;2023-03-01T01:34:00;13.03;;;12.03;;
24259;SDS011;12384;48.112;18.418;2023-03-01T01:36:29;13.60;;;12.50;;
24259;SDS011;12384;48.112;18.418;2023-03-01T01:38:59;12.83;;;11.80;;
24259;SDS011;12384;48.112;18.418;2023-03-01T01:41:29;13.67;;;12.57;;
24259;SDS011;12384;48.112;18.418;2023-03-01T01:44:11;12.57;;;11.57;;
24259;SDS011;12384;48.112;18.418;2023-03-01T01:46:43;12.17;;;11.23;;
24259;SDS011;12384;48.112;18.418;2023-03-01T01:49:17;12.60;;;11.60;;
24259;SDS011;12384;48.112;18.418;2023-03-01T01:52:04;13.13;;;12.13;;
24259;SDS011;12384;48.112;18.418;2023-03-01T01:54:40;12.47;;;11.50;;
24259;SDS011;12384;48.112;18.418;2023-03-01T01:57:13;13.70;;;12.60;;
24259;SDS011;12384;48.112;18.418;2023-03-01T01:59:45;13.83;;;12.63;;
24259;SDS011;12384;48.112;18.418;2023-03-01T02:02:18;14.50;;;13.20;;
24259;SDS011;12384;48.112;18.418;2023-03-01T02:04:47;13.33;;;12.20;;
24259;SDS011;12384;48.112;18.418;2023-03-01T02:07:21;13.90;;;12.80;;
24259;SDS011;12384;48.112;18.418;2023-03-01T02:09:52;13.67;;;12.53;;
24259;SDS011;12384;48.112;18.418;2023-03-01T02:12:22;13.57;;;12.37;;
24259;SDS011;12384;48.112;18.418;2023-03-01T02:14:52;12.87;;;11.87;;
24259;SDS011;12384;48.112;18.418;2023-03-01T02:17:20;14.00;;;12.73;;
24259;SDS011;12384;48.112;18.418;2023-03-01T02:19:52;13.73;;;12.67;;
24259;SDS011;12384;48.112;18.418;2023-03-01T02:22:34;13.13;;;12.03;;
24259;SDS011;12384;48.112;18.418;2023-03-01T02:25:10;12.73;;;11.73;;
24259;SDS011;12384;48.112;18.418;2023-03-01T02:27:49;13.50;;;12.40;;
24259;SDS011;12384;48.112;18.418;2023-03-01T02:30:26;12.13;;;11.23;;
24259;SDS011;12384;48.112;18.418;2023-03-01T02:32:56;12.10;;;11.20;;
24259;SDS011;12384;48.112;18.418;2023-03-01T02:35:29;13.53;;;12.33;;
24259;SDS011;12384;48.112;18.418;2023-03-01T02:38:01;13.27;;;12.17;;
24259;SDS011;12384;48.112;18.418;2023-03-01T02:40:31;12.97;;;12.07;;
24259;SDS011;12384;48.112;18.418;2023-03-01T02:43:04;13.20;;;12.20;;
24259;SDS011;12384;48.112;18.418;2023-03-01T02:45:37;11.90;;;11.00;;
24259;SDS011;12384;48.112;18.418;2023-03-01T02:48:15;12.17;;;11.27;;
24259;SDS011;12384;48.112;18.418;2023-03-01T02:50:47;13.70;;;12.60;;
24259;SDS011;12384;48.112;18.418;2023-03-01T02:53:28;15.07;;;13.77;;
24259;SDS011;12384;48.112;18.418;2023-03-01T02:56:07;13.93;;;12.67;;
24259;SDS011;12384;48.112;18.418;2023-03-01T02:58:40;13.17;;;12.07;;
24259;SDS011;12384;48.112;18.418;2023-03-01T03:01:14;14.07;;;12.87;;
24259;SDS011;12384;48.112;18.418;2023-03-01T03:03:43;13.50;;;12.30;;
24259;SDS011;12384;48.112;18.418;2023-03-01T03:06:13;13.57;;;12.47;;
24259;SDS011;12384;48.112;18.418;2023-03-01T03:08:41;13.87;;;12.70;;
24259;SDS011;12384;48.112;18.418;2023-03-01T03:11:10;13.30;;;12.17;;
24259;SDS011;12384;48.112;18.418;2023-03-01T03:13:39;13.37;;;12.33;;
24259;SDS011;12384;48.112;18.418;2023-03-01T03:16:17;13.17;;;12.07;;
24259;SDS011;12384;48.112;18.418;2023-03-01T03:18:46;13.27;;;12.10;;
24259;SDS011;12384;48.112;18.418;2023-03-01T03:21:15;13.63;;;12.37;;
24259;SDS011;12384;48.112;18.418;2023-03-01T03:23:43;13.80;;;12.60;;
24259;SDS011;12384;48.112;18.418;2023-03-01T03:26:12;12.90;;;11.90;;
24259;SDS011;12384;48.112;18.418;2023-03-01T03:28:41;13.17;;;12.07;;
24259;SDS011;12384;48.112;18.418;2023-03-01T03:31:10;13.30;;;12.20;;
24259;SDS011;12384;48.112;18.418;2023-03-01T03:33:40;12.17;;;11.27;;
24259;SDS011;12384;48.112;18.418;2023-03-01T03:36:08;12.83;;;11.60;;
24259;SDS011;12384;48.112;18.418;2023-03-01T03:38:39;13.37;;;11.87;;
24259;SDS011;12384;48.112;18.418;2023-03-01T03:41:08;14.30;;;13.00;;
24259;SDS011;12384;48.112;18.418;2023-03-01T03:43:37;14.17;;;13.07;;
24259;SDS011;12384;48.112;18.418;2023-03-01T03:46:07;13.53;;;12.43;;
24259;SDS011;12384;48.112;18.418;2023-03-01T03:48:36;15.33;;;13.93;;
24259;SDS011;12384;48.112;18.418;2023-03-01T03:51:09;14.90;;;13.70;;
24259;SDS011;12384;48.112;18.418;2023-03-01T03:53:39;14.13;;;13.00;;
24259;SDS011;12384;48.112;18.418;2023-03-01T03:56:08;14.27;;;13.07;;
24259;SDS011;12384;48.112;18.418;2023-03-01T03:58:37;15.57;;;14.17;;
24259;SDS011;12384;48.112;18.418;2023-03-01T04:01:05;15.07;;;13.67;;
24259;SDS011;12384;48.112;18.418;2023-03-01T04:03:34;16.10;;;14.60;;
24259;SDS011;12384;48.112;18.418;2023-03-01T04:06:04;15.53;;;14.13;;
24259;SDS011;12384;48.112;18.418;2023-03-01T04:08:33;15.27;;;13.80;;
24259;SDS011;12384;48.112;18.418;2023-03-01T04:11:02;15.23;;;13.90;;
24259;SDS011;12384;48.112;18.418;2023-03-01T04:13:45;14.23;;;13.03;;
24259;SDS011;12384;48.112;18.418;2023-03-01T04:16:14;14.40;;;13.10;;
24259;SDS011;12384;48.112;18.418;2023-03-01T04:18:42;15.20;;;13.80;;
24259;SDS011;12384;48.112;18.418;2023-03-01T04:21:13;15.03;;;13.63;;
24259;SDS011;12384;48.112;18.418;2023-03-01T04:23:42;15.07;;;13.70;;
24259;SDS011;12384;48.112;18.418;2023-03-01T04:26:10;15.47;;;13.97;;
24259;SDS011;12384;48.112;18.418;2023-03-01T04:28:39;14.77;;;13.37;;
24259;SDS011;12384;48.112;18.418;2023-03-01T04:31:12;15.00;;;13.60;;
24259;SDS011;12384;48.112;18.418;2023-03-01T04:33:44;15.53;;;14.03;;
24259;SDS011;12384;48.112;18.418;2023-03-01T04:36:16;15.77;;;14.37;;
24259;SDS011;12384;48.112;18.418;2023-03-01T04:38:45;15.07;;;13.63;;
24259;SDS011;12384;48.112;18.418;2023-03-01T04:41:15;15.83;;;14.43;;
24259;SDS011;12384;48.112;18.418;2023-03-01T04:43:46;14.37;;;13.17;;
24259;SDS011;12384;48.112;18.418;2023-03-01T04:46:15;13.90;;;12.80;;
24259;SDS011;12384;48.112;18.418;2023-03-01T04:48:45;13.57;;;12.50;;
24259;SDS011;12384;48.112;18.418;2023-03-01T04:51:16;13.13;;;12.03;;
24259;SDS011;12384;48.112;18.418;2023-03-01T04:53:45;13.00;;;11.97;;
24259;SDS011;12384;48.112;18.418;2023-03-01T04:56:14;12.47;;;11.47;;
24259;SDS011;12384;48.112;18.418;2023-03-01T04:58:44;12.80;;;11.70;;
24259;SDS011;12384;48.112;18.418;2023-03-01T05:01:14;12.20;;;11.20;;
24259;SDS011;12384;48.112;18.418;2023-03-01T05:03:44;12.70;;;11.70;;
24259;SDS011;12384;48.112;18.418;2023-03-01T05:06:15;11.53;;;10.60;;
24259;SDS011;12384;48.112;18.418;2023-03-01T05:08:46;12.27;;;11.17;;
24259;SDS011;12384;48.112;18.418;2023-03-01T05:11:14;12.23;;;11.23;;
24259;SDS011;12384;48.112;18.418;2023-03-01T05:13:42;13.33;;;12.23;;
24259;SDS011;12384;48.112;18.418;2023-03-01T05:16:11;12.70;;;11.60;;
24259;SDS011;12384;48.112;18.418;2023-03-01T05:18:39;12.87;;;11.87;;
24259;SDS011;12384;48.112;18.418;2023-03-01T05:21:09;12.60;;;11.60;;
24259;SDS011;12384;48.112;18.418;2023-03-01T05:23:40;14.17;;;13.07;;
24259;SDS011;12384;48.112;18.418;2023-03-01T05:26:09;13.17;;;12.07;;
24259;SDS011;12384;48.112;18.418;2023-03-01T05:28:54;11.97;;;10.90;;
24259;SDS011;12384;48.112;18.418;2023-03-01T05:31:26;13.67;;;12.53;;
24259;SDS011;12384;48.112;18.418;2023-03-01T05:33:54;14.17;;;12.93;;
24259;SDS011;12384;48.112;18.418;2023-03-01T05:36:23;14.10;;;13.00;;
24259;SDS011;12384;48.112;18.418;2023-03-01T05:38:52;16.07;;;14.60;;
24259;SDS011;12384;48.112;18.418;2023-03-01T05:41:22;14.53;;;13.23;;
24259;SDS011;12384;48.112;18.418;2023-03-01T05:43:50;14.07;;;12.97;;
24259;SDS011;12384;48.112;18.418;2023-03-01T05:46:19;12.77;;;11.77;;
24259;SDS011;12384;48.112;18.418;2023-03-01T05:48:48;14.67;;;13.37;;
24259;SDS011;12384;48.112;18.418;2023-03-01T05:51:17;14.83;;;13.47;;
24259;SDS011;12384;48.112;18.418;2023-03-01T05:53:45;14.07;;;12.87;;
24259;SDS011;12384;48.112;18.418;2023-03-01T05:56:15;14.80;;;13.40;;
24259;SDS011;12384;48.112;18.418;2023-03-01T05:58:43;14.30;;;13.00;;
24259;SDS011;12384;48.112;18.418;2023-03-01T06:01:12;12.70;;;11.60;;
24259;SDS011;12384;48.112;18.418;2023-03-01T06:03:40;13.00;;;11.90;;
24259;SDS011;12384;48.112;18.418;2023-03-01T06:06:09;13.33;;;12.20;;
24259;SDS011;12384;48.112;18.418;2023-03-01T06:08:37;13.23;;;11.93;;
24259;SDS011;12384;48.112;18.418;2023-03-01T06:11:06;13.70;;;12.50;;
24259;SDS011;12384;48.112;18.418;2023-03-01T06:13:35;14.17;;;12.97;;
24259;SDS011;12384;48.112;18.418;2023-03-01T06:16:04;13.33;;;12.27;;
24259;SDS011;12384;48.112;18.418;2023-03-01T06:18:33;13.93;;;12.63;;
24259;SDS011;12384;48.112;18.418;2023-03-01T06:21:02;14.47;;;13.17;;
24259;SDS011;12384;48.112;18.418;2023-03-01T06:23:31;12.70;;;11.70;;
24259;SDS011;12384;48.112;18.418;2023-03-01T06:26:00;13.27;;;12.17;;
24259;SDS011;12384;48.112;18.418;2023-03-01T06:28:32;14.17;;;12.97;;
24259;SDS011;12384;48.112;18.418;2023-03-01T06:31:02;15.03;;;13.63;;
24259;SDS011;12384;48.112;18.418;2023-03-01T06:33:30;14.20;;;13.00;;
24259;SDS011;12384;48.112;18.418;2023-03-01T06:35:58;14.83;;;13.53;;
24259;SDS011;12384;48.112;18.418;2023-03-01T06:38:27;15.70;;;14.30;;
24259;SDS011;12384;48.112;18.418;2023-03-01T06:40:55;14.87;;;13.67;;
24259;SDS011;12384;48.112;18.418;2023-03-01T06:43:24;14.40;;;13.20;;
24259;SDS011;12384;48.112;18.418;2023-03-01T06:45:52;15.07;;;13.83;;
24259;SDS011;12384;48.112;18.418;2023-03-01T06:48:22;16.43;;;14.83;;
24259;SDS011;12384;48.112;18.418;2023-03-01T06:50:50;15.70;;;14.40;;
24259;SDS011;12384;48.112;18.418;2023-03-01T06:53:19;15.73;;;14.40;;
24259;SDS011;12384;48.112;18.418;2023-03-01T06:55:47;14.17;;;12.97;;
24259;SDS011;12384;48.112;18.418;2023-03-01T06:58:22;14.77;;;12.97;;
24259;SDS011;12384;48.112;18.418;2023-03-01T07:00:51;15.73;;;14.33;;
24259;SDS011;12384;48.112;18.418;2023-03-01T07:03:19;15.10;;;13.80;;
24259;SDS011;12384;48.112;18.418;2023-03-01T07:05:49;16.10;;;14.60;;
24259;SDS011;12384;48.112;18.418;2023-03-01T07:08:19;14.90;;;13.50;;
24259;SDS011;12384;48.112;18.418;2023-03-01T07:10:47;14.47;;;13.27;;
24259;SDS011;12384;48.112;18.418;2023-03-01T07:13:18;14.60;;;13.40;;
24259;SDS011;12384;48.112;18.418;2023-03-01T07:15:46;16.30;;;14.80;;
24259;SDS011;12384;48.112;18.418;2023-03-01T07:18:15;15.00;;;13.70;;
24259;SDS011;12384;48.112;18.418;2023-03-01T07:20:43;15.30;;;14.00;;
24259;SDS011;12384;48.112;18.418;2023-03-01T07:23:14;16.20;;;14.63;;
24259;SDS011;12384;48.112;18.418;2023-03-01T07:25:42;16.00;;;14.60;;
24259;SDS011;12384;48.112;18.418;2023-03-01T07:28:11;16.03;;;14.53;;
24259;SDS011;12384;48.112;18.418;2023-03-01T07:30:39;15.03;;;13.83;;
24259;SDS011;12384;48.112;18.418;2023-03-01T07:33:07;15.77;;;14.33;;
24259;SDS011;12384;48.112;18.418;2023-03-01T07:35:36;15.30;;;13.97;;
24259;SDS011;12384;48.112;18.418;2023-03-01T07:38:05;15.93;;;14.53;;
24259;SDS011;12384;48.112;18.418;2023-03-01T07:40:35;15.67;;;14.37;;
24259;SDS011;12384;48.112;18.418;2023-03-01T07:43:03;14.90;;;13.60;;
24259;SDS011;12384;48.112;18.418;2023-03-01T07:45:32;15.80;;;14.40;;
24259;SDS011;12384;48.112;18.418;2023-03-01T07:48:00;13.60;;;12.60;;
24259;SDS011;12384;48.112;18.418;2023-03-01T07:50:29;15.03;;;13.83;;
24259;SDS011;12384;48.112;18.418;2023-03-01T07:52:57;15.53;;;14.13;;
24259;SDS011;12384;48.112;18.418;2023-03-01T07:55:25;15.47;;;14.17;;
24259;SDS011;12384;48.112;18.418;2023-03-01T07:57:55;15.97;;;14.53;;
24259;SDS011;12384;48.112;18.418;2023-03-01T08:00:24;16.33;;;14.83;;
24259;SDS011;12384;48.112;18.418;2023-03-01T08:02:52;15.33;;;13.90;;
24259;SDS011;12384;48.112;18.418;2023-03-01T08:05:21;19.77;;;17.77;;
24259;SDS011;12384;48.112;18.418;2023-03-01T08:07:49;29.43;;;21.10;;
24259;SDS011;12384;48.112;18.418;2023-03-01T08:10:18;22.80;;;18.93;;
24259;SDS011;12384;48.112;18.418;2023-03-01T08:12:46;18.23;;;16.53;;
24259;SDS011;12384;48.112;18.418;2023-03-01T08:15:16;15.73;;;14.33;;
24259;SDS011;12384;48.112;18.418;2023-03-01T08:17:45;15.70;;;14.37;;
24259;SDS011;12384;48.112;18.418;2023-03-01T08:20:16;14.90;;;13.70;;
24259;SDS011;12384;48.112;18.418;2023-03-01T08:22:45;14.63;;;13.13;;
24259;SDS011;12384;48.112;18.418;2023-03-01T08:25:14;13.60;;;12.50;;
24259;SDS011;12384;48.112;18.418;2023-03-01T08:27:42;15.10;;;13.67;;
24259;SDS011;12384;48.112;18.418;2023-03-01T08:30:11;13.93;;;12.83;;
24259;SDS011;12384;48.112;18.418;2023-03-01T08:32:41;13.97;;;12.77;;
24259;SDS011;12384;48.112;18.418;2023-03-01T08:35:10;14.30;;;13.10;;
24259;SDS011;12384;48.112;18.418;2023-03-01T08:37:38;14.13;;;13.03;;
24259;SDS011;12384;48.112;18.418;2023-03-01T08:40:07;14.60;;;13.30;;
24259;SDS011;12384;48.112;18.418;2023-03-01T08:42:36;14.83;;;13.43;;
24259;SDS011;12384;48.112;18.418;2023-03-01T08:45:05;14.43;;;13.13;;
24259;SDS011;12384;48.112;18.418;2023-03-01T08:47:34;14.10;;;12.90;;
24259;SDS011;12384;48.112;18.418;2023-03-01T08:50:04;15.23;;;13.80;;
24259;SDS011;12384;48.112;18.418;2023-03-01T08:52:33;13.93;;;12.83;;
24259;SDS011;12384;48.112;18.418;2023-03-01T08:55:02;13.87;;;12.67;;
24259;SDS011;12384;48.112;18.418;2023-03-01T08:57:30;14.20;;;13.10;;
24259;SDS011;12384;48.112;18.418;2023-03-01T08:59:59;14.80;;;13.60;;
24259;SDS011;12384;48.112;18.418;2023-03-01T09:02:27;13.93;;;12.80;;
24259;SDS011;12384;48.112;18.418;2023-03-01T09:04:56;13.90;;;12.60;;
24259;SDS011;12384;48.112;18.418;2023-03-01T09:07:27;13.30;;;12.30;;
24259;SDS011;12384;48.112;18.418;2023-03-01T09:09:55;14.30;;;13.10;;
24259;SDS011;12384;48.112;18.418;2023-03-01T09:12:24;13.53;;;12.43;;
24259;SDS011;12384;48.112;18.418;2023-03-01T09:14:52;17.03;;;15.33;;
24259;SDS011;12384;48.112;18.418;2023-03-01T09:17:21;25.43;;;20.37;;
24259;SDS011;12384;48.112;18.418;2023-03-01T09:19:49;29.70;;;21.33;;
24259;SDS011;12384;48.112;18.418;2023-03-01T09:22:17;24.43;;;19.63;;
24259;SDS011;12384;48.112;18.418;2023-03-01T09:24:47;17.70;;;15.70;;
24259;SDS011;12384;48.112;18.418;2023-03-01T09:27:16;14.97;;;13.53;;
24259;SDS011;12384;48.112;18.418;2023-03-01T09:29:45;13.80;;;12.67;;
24259;SDS011;12384;48.112;18.418;2023-03-01T09:32:13;13.13;;;12.13;;
24259;SDS011;12384;48.112;18.418;2023-03-01T09:34:42;12.10;;;11.10;;
24259;SDS011;12384;48.112;18.418;2023-03-01T09:37:32;13.13;;;12.13;;
24259;SDS011;12384;48.112;18.418;2023-03-01T09:40:02;12.13;;;11.17;;
24259;SDS011;12384;48.112;18.418;2023-03-01T09:42:32;12.20;;;11.17;;
24259;SDS011;12384;48.112;18.418;2023-03-01T09:45:04;12.33;;;11.23;;
24259;SDS011;12384;48.112;18.418;2023-03-01T09:47:34;13.23;;;12.20;;
24259;SDS011;12384;48.112;18.418;2023-03-01T09:50:04;12.40;;;11.50;;
24259;SDS011;12384;48.112;18.418;2023-03-01T09:52:40;13.90;;;12.80;;
24259;SDS011;12384;48.112;18.418;2023-03-01T09:55:13;13.60;;;12.53;;
24259;SDS011;12384;48.112;18.418;2023-03-01T09:57:47;13.10;;;12.13;;
24259;SDS011;12384;48.112;18.418;2023-03-01T10:00:27;13.37;;;12.37;;
24259;SDS011;12384;48.112;18.418;2023-03-01T10:03:08;11.97;;;11.07;;
24259;SDS011;12384;48.112;18.418;2023-03-01T10:05:47;13.47;;;12.47;;
24259;SDS011;12384;48.112;18.418;2023-03-01T10:08:27;12.10;;;11.27;;
24259;SDS011;12384;48.112;18.418;2023-03-01T10:11:12;12.00;;;11.10;;
24259;SDS011;12384;48.112;18.418;2023-03-01T10:13:51;13.37;;;12.37;;
24259;SDS011;12384;48.112;18.418;2023-03-01T10:16:27;12.37;;;11.47;;
24259;SDS011;12384;48.112;18.418;2023-03-01T10:19:02;12.20;;;11.33;;
24259;SDS011;12384;48.112;18.418;2023-03-01T10:21:33;13.53;;;12.43;;
24259;SDS011;12384;48.112;18.418;2023-03-01T10:24:10;13.87;;;12.87;;
24259;SDS011;12384;48.112;18.418;2023-03-01T10:26:47;12.33;;;11.33;;
24259;SDS011;12384;48.112;18.418;2023-03-01T10:29:21;13.03;;;12.00;;
24259;SDS011;12384;48.112;18.418;2023-03-01T10:31:54;12.10;;;11.10;;
24259;SDS011;12384;48.112;18.418;2023-03-01T10:34:31;13.23;;;12.33;;
24259;SDS011;12384;48.112;18.418;2023-03-01T10:37:07;12.53;;;11.53;;
24259;SDS011;12384;48.112;18.418;2023-03-01T10:39:40;12.93;;;11.90;;
24259;SDS011;12384;48.112;18.418;2023-03-01T10:42:27;12.23;;;11.23;;
24259;SDS011;12384;48.112;18.418;2023-03-01T10:44:58;12.37;;;11.43;;
24259;SDS011;12384;48.112;18.418;2023-03-01T10:47:41;13.70;;;12.50;;
24259;SDS011;12384;48.112;18.418;2023-03-01T10:50:18;13.80;;;12.80;;
24259;SDS011;12384;48.112;18.418;2023-03-01T10:52:56;13.33;;;12.33;;
24259;SDS011;12384;48.112;18.418;2023-03-01T10:55:28;12.50;;;11.50;;
24259;SDS011;12384;48.112;18.418;2023-03-01T10:58:17;11.90;;;11.00;;
24259;SDS011;12384;48.112;18.418;2023-03-01T11:00:49;12.00;;;11.10;;
24259;SDS011;12384;48.112;18.418;2023-03-01T11:03:21;12.00;;;11.00;;
24259;SDS011;12384;48.112;18.418;2023-03-01T11:06:02;11.77;;;10.93;;
24259;SDS011;12384;48.112;18.418;2023-03-01T11:08:34;11.50;;;10.77;;
24259;SDS011;12384;48.112;18.418;2023-03-01T11:11:13;14.57;;;13.27;;
24259;SDS011;12384;48.112;18.418;2023-03-01T11:13:53;13.50;;;12.30;;
24259;SDS011;12384;48.112;18.418;2023-03-01T11:16:25;12.70;;;11.70;;
24259;SDS011;12384;48.112;18.418;2023-03-01T11:19:03;12.70;;;11.80;;
24259;SDS011;12384;48.112;18.418;2023-03-01T11:21:43;10.97;;;10.20;;
24259;SDS011;12384;48.112;18.418;2023-03-01T11:24:23;11.70;;;10.87;;
24259;SDS011;12384;48.112;18.418;2023-03-01T11:26:57;10.57;;;9.87;;
24259;SDS011;12384;48.112;18.418;2023-03-01T11:29:32;11.07;;;10.27;;
24259;SDS011;12384;48.112;18.418;2023-03-01T11:32:14;11.47;;;10.67;;
24259;SDS011;12384;48.112;18.418;2023-03-01T11:34:46;11.17;;;10.47;;
24259;SDS011;12384;48.112;18.418;2023-03-01T11:37:23;11.10;;;10.30;;
24259;SDS011;12384;48.112;18.418;2023-03-01T11:39:59;11.07;;;10.37;;
24259;SDS011;12384;48.112;18.418;2023-03-01T11:42:42;11.60;;;10.90;;
24259;SDS011;12384;48.112;18.418;2023-03-01T11:45:29;12.07;;;11.20;;
24259;SDS011;12384;48.112;18.418;2023-03-01T11:48:14;12.40;;;11.50;;
24259;SDS011;12384;48.112;18.418;2023-03-01T11:51:15;12.37;;;11.27;;
24259;SDS011;12384;48.112;18.418;2023-03-01T11:53:56;12.00;;;11.20;;
24259;SDS011;12384;48.112;18.418;2023-03-01T11:56:34;11.80;;;11.00;;
24259;SDS011;12384;48.112;18.418;2023-03-01T11:59:27;11.57;;;10.73;;
24259;SDS011;12384;48.112;18.418;2023-03-01T12:02:33;11.30;;;10.50;;
24259;SDS011;12384;48.112;18.418;2023-03-01T12:05:18;10.80;;;10.10;;
24259;SDS011;12384;48.112;18.418;2023-03-01T12:07:53;11.68;;;10.88;;
24259;SDS011;12384;48.112;18.418;2023-03-01T12:10:30;12.77;;;11.77;;
24259;SDS011;12384;48.112;18.418;2023-03-01T12:13:18;13.20;;;12.18;;
24259;SDS011;12384;48.112;18.418;2023-03-01T12:16:10;11.10;;;10.40;;
24259;SDS011;12384;48.112;18.418;2023-03-01T12:19:17;12.00;;;11.20;;
24259;SDS011;12384;48.112;18.418;2023-03-01T12:22:09;11.88;;;10.80;;
24259;SDS011;12384;48.112;18.418;2023-03-01T12:27:56;11.55;;;10.85;;
24259;SDS011;12384;48.112;18.418;2023-03-01T12:30:39;11.07;;;10.27;;
24259;SDS011;12384;48.112;18.418;2023-03-01T12:33:21;11.15;;;10.35;;
24259;SDS011;12384;48.112;18.418;2023-03-01T12:36:10;11.13;;;10.43;;
24259;SDS011;12384;48.112;18.418;2023-03-01T12:38:55;10.57;;;9.88;;
24259;SDS011;12384;48.112;18.418;2023-03-01T12:44:31;10.80;;;10.00;;
24259;SDS011;12384;48.112;18.418;2023-03-01T12:47:23;10.93;;;10.23;;
24259;SDS011;12384;48.112;18.418;2023-03-01T12:50:02;11.52;;;10.73;;
24259;SDS011;12384;48.112;18.418;2023-03-01T12:52:41;10.75;;;10.15;;
24259;SDS011;12384;48.112;18.418;2023-03-01T12:55:18;9.80;;;9.20;;
24259;SDS011;12384;48.112;18.418;2023-03-01T12:57:57;9.40;;;8.82;;
24259;SDS011;12384;48.112;18.418;2023-03-01T13:00:37;10.93;;;10.23;;
24259;SDS011;12384;48.112;18.418;2023-03-01T13:03:16;11.45;;;10.65;;
24259;SDS011;12384;48.112;18.418;2023-03-01T13:05:55;11.27;;;10.57;;
24259;SDS011;12384;48.112;18.418;2023-03-01T13:08:35;11.48;;;10.75;;
24259;SDS011;12384;48.112;18.418;2023-03-01T13:11:13;10.52;;;9.82;;
24259;SDS011;12384;48.112;18.418;2023-03-01T13:13:45;10.60;;;9.98;;
24259;SDS011;12384;48.112;18.418;2023-03-01T13:16:20;10.95;;;10.25;;
24259;SDS011;12384;48.112;18.418;2023-03-01T13:19:06;10.68;;;9.82;;
24259;SDS011;12384;48.112;18.418;2023-03-01T13:21:40;10.70;;;10.00;;
24259;SDS011;12384;48.112;18.418;2023-03-01T13:24:37;14.50;;;13.30;;
24259;SDS011;12384;48.112;18.418;2023-03-01T13:29:56;10.80;;;9.98;;
24259;SDS011;12384;48.112;18.418;2023-03-01T13:32:30;9.73;;;9.13;;
24259;SDS011;12384;48.112;18.418;2023-03-01T13:41:07;10.45;;;9.75;;
24259;SDS011;12384;48.112;18.418;2023-03-01T13:43:36;10.32;;;9.73;;
24259;SDS011;12384;48.112;18.418;2023-03-01T13:46:08;10.65;;;9.95;;
24259;SDS011;12384;48.112;18.418;2023-03-01T13:48:40;10.52;;;9.82;;
24259;SDS011;12384;48.112;18.418;2023-03-01T13:51:12;10.63;;;10.02;;
24259;SDS011;12384;48.112;18.418;2023-03-01T13:53:42;10.30;;;9.70;;
24259;SDS011;12384;48.112;18.418;2023-03-01T13:56:16;10.35;;;9.75;;
24259;SDS011;12384;48.112;18.418;2023-03-01T13:58:49;10.57;;;9.98;;
24259;SDS011;12384;48.112;18.418;2023-03-01T14:01:21;10.20;;;9.60;;
24259;SDS011;12384;48.112;18.418;2023-03-01T14:03:55;10.77;;;10.18;;
24259;SDS011;12384;48.112;18.418;2023-03-01T14:06:25;11.15;;;10.45;;
24259;SDS011;12384;48.112;18.418;2023-03-01T14:09:01;11.00;;;10.30;;
24259;SDS011;12384;48.112;18.418;2023-03-01T14:14:31;11.30;;;10.60;;
24259;SDS011;12384;48.112;18.418;2023-03-01T14:17:13;10.65;;;9.98;;
24259;SDS011;12384;48.112;18.418;2023-03-01T14:20:07;10.80;;;10.10;;
24259;SDS011;12384;48.112;18.418;2023-03-01T14:22:40;10.80;;;10.10;;
24259;SDS011;12384;48.112;18.418;2023-03-01T14:25:17;11.57;;;10.88;;
24259;SDS011;12384;48.112;18.418;2023-03-01T14:27:55;10.32;;;9.73;;
24259;SDS011;12384;48.112;18.418;2023-03-01T14:30:30;11.23;;;10.52;;
24259;SDS011;12384;48.112;18.418;2023-03-01T14:33:02;11.38;;;10.68;;
24259;SDS011;12384;48.112;18.418;2023-03-01T14:35:33;11.70;;;10.93;;
24259;SDS011;12384;48.112;18.418;2023-03-01T14:38:03;11.57;;;10.80;;
24259;SDS011;12384;48.112;18.418;2023-03-01T14:40:32;11.60;;;10.90;;
24259;SDS011;12384;48.112;18.418;2023-03-01T14:43:09;10.95;;;10.25;;
24259;SDS011;12384;48.112;18.418;2023-03-01T14:45:39;10.73;;;9.95;;
24259;SDS011;12384;48.112;18.418;2023-03-01T14:48:15;10.65;;;9.95;;
24259;SDS011;12384;48.112;18.418;2023-03-01T14:50:44;10.77;;;10.18;;
24259;SDS011;12384;48.112;18.418;2023-03-01T14:53:16;11.20;;;10.30;;
24259;SDS011;12384;48.112;18.418;2023-03-01T14:55:47;10.75;;;10.07;;
24259;SDS011;12384;48.112;18.418;2023-03-01T14:58:21;10.85;;;10.07;;